createdAt,value
2022-07-25T00:04:14.782Z,49.26
2022-07-25T00:09:35.674Z,49.66
2022-07-25T00:14:56.183Z,49.29
2022-07-25T00:20:17.053Z,49.66
2022-07-25T00:25:37.794Z,49.60
2022-07-25T00:30:58.618Z,49.30
2022-07-25T00:36:19.503Z,49.19
2022-07-25T00:41:40.385Z,49.35
2022-07-25T00:47:01.060Z,49.39
2022-07-25T00:52:21.762Z,49.50
2022-07-25T00:57:42.367Z,49.28
2022-07-25T01:03:03.151Z,49.89
2022-07-25T01:08:25.280Z,49.48
2022-07-25T01:13:45.974Z,49.84
2022-07-25T01:19:06.976Z,49.62
2022-07-25T01:24:29.297Z,49.86
2022-07-25T01:29:50.200Z,50.09
2022-07-25T01:35:11.848Z,49.87
2022-07-25T01:40:32.410Z,49.99
2022-07-25T01:45:53.122Z,49.85
2022-07-25T01:51:13.671Z,49.84
2022-07-25T01:56:34.341Z,49.79
2022-07-25T02:01:54.902Z,49.66
2022-07-25T02:07:15.597Z,49.99
2022-07-25T02:12:36.290Z,50.22
2022-07-25T02:17:56.936Z,50.30
2022-07-25T02:23:17.549Z,50.24
2022-07-25T02:28:38.351Z,50.52
2022-07-25T02:33:59.019Z,50.59
2022-07-25T02:39:19.855Z,50.51
2022-07-25T02:44:40.484Z,50.24
2022-07-25T02:50:01.202Z,50.19
2022-07-25T02:55:21.723Z,50.24
2022-07-25T03:00:44.277Z,50.50
2022-07-25T03:06:05.614Z,50.52
2022-07-25T03:11:26.443Z,50.40
2022-07-25T03:16:47.149Z,50.36
2022-07-25T03:22:07.655Z,50.41
2022-07-25T03:27:28.346Z,50.31
2022-07-25T03:32:49.629Z,50.33
2022-07-25T03:38:11.079Z,50.28
2022-07-25T03:43:32.019Z,50.34
2022-07-25T03:48:52.686Z,50.70
2022-07-25T03:54:16.072Z,51.26
2022-07-25T03:59:36.838Z,51.03
2022-07-25T04:04:57.495Z,51.21
2022-07-25T04:10:17.975Z,51.23
2022-07-25T04:15:38.602Z,51.33
2022-07-25T04:20:59.239Z,51.31
2022-07-25T04:26:20.434Z,51.48
2022-07-25T04:31:41.020Z,51.21
2022-07-25T04:37:02.978Z,50.77
2022-07-25T04:42:23.816Z,50.97
2022-07-25T04:47:44.410Z,49.94
2022-07-25T04:53:05.622Z,49.87
2022-07-25T04:58:26.353Z,49.38
2022-07-25T05:03:50.267Z,49.00
2022-07-25T05:09:11.520Z,48.87
2022-07-25T05:14:33.462Z,48.53
2022-07-25T05:19:54.403Z,47.91
2022-07-25T05:25:15.506Z,47.87
2022-07-25T05:30:39.730Z,47.45
2022-07-25T05:36:01.321Z,46.98
2022-07-25T05:41:22.380Z,46.94
2022-07-25T05:46:43.015Z,46.99
2022-07-25T05:52:04.721Z,46.21
2022-07-25T05:57:32.159Z,46.51
2022-07-25T06:02:53.349Z,45.95
2022-07-25T06:08:14.667Z,46.03
2022-07-25T06:13:35.851Z,46.02
2022-07-25T06:18:56.411Z,45.69
2022-07-25T06:24:17.258Z,45.70
2022-07-25T06:29:37.905Z,45.34
2022-07-25T06:34:59.310Z,45.41
2022-07-25T06:40:20.322Z,44.77
2022-07-25T06:45:43.081Z,44.65
2022-07-25T06:51:04.429Z,44.37
2022-07-25T06:56:25.147Z,43.86
2022-07-25T07:01:51.019Z,44.20
2022-07-25T07:07:12.489Z,43.04
2022-07-25T07:12:33.111Z,43.21
2022-07-25T07:17:54.474Z,43.18
2022-07-25T07:23:17.041Z,43.12
2022-07-25T07:28:39.165Z,43.05
2022-07-25T07:33:59.724Z,42.97
2022-07-25T07:39:20.578Z,42.67
2022-07-25T07:44:41.321Z,42.58
2022-07-25T07:50:01.963Z,42.96
2022-07-25T07:55:41.707Z,42.88
2022-07-25T08:01:02.253Z,42.79
2022-07-25T08:06:23.045Z,41.83
2022-07-25T08:11:43.699Z,42.16
2022-07-25T08:17:04.308Z,42.68
2022-07-25T08:22:36.216Z,42.64
2022-07-25T08:27:57.600Z,42.37
2022-07-25T08:33:18.265Z,41.95
2022-07-25T08:38:39.979Z,42.68
2022-07-25T08:44:02.883Z,42.62
2022-07-25T08:49:24.181Z,42.04
2022-07-25T08:54:47.814Z,41.88
2022-07-25T09:00:08.906Z,41.88
2022-07-25T09:05:32.124Z,41.90
2022-07-25T09:10:53.691Z,41.20
2022-07-25T09:16:14.393Z,41.57
2022-07-25T09:21:36.182Z,41.80
2022-07-25T09:26:59.772Z,41.78
2022-07-25T09:32:22.788Z,41.40
2022-07-25T09:37:43.742Z,41.14
2022-07-25T09:43:04.355Z,41.11
2022-07-25T09:48:25.047Z,40.98
2022-07-25T09:53:45.884Z,40.26
2022-07-25T09:59:07.160Z,40.50
2022-07-25T10:04:37.418Z,39.95
2022-07-25T10:10:00.083Z,39.98
2022-07-25T10:15:21.090Z,39.36
2022-07-25T10:20:43.142Z,39.90
2022-07-25T10:26:09.056Z,39.36
2022-07-25T10:31:32.993Z,39.06
2022-07-25T10:36:57.346Z,38.83
2022-07-25T10:42:21.562Z,38.46
2022-07-25T10:47:53.965Z,38.16
2022-07-25T10:53:14.910Z,38.21
2022-07-25T10:58:55.433Z,38.40
2022-07-25T11:04:16.208Z,38.21
2022-07-25T11:09:37.442Z,38.24
2022-07-25T11:15:04.439Z,38.13
2022-07-25T11:20:25.158Z,37.60
2022-07-25T11:25:45.839Z,37.56
2022-07-25T11:31:06.745Z,37.29
2022-07-25T11:36:27.622Z,36.97
2022-07-25T11:41:59.815Z,37.27
2022-07-25T11:47:29.377Z,37.01
2022-07-25T11:52:59.947Z,36.54
2022-07-25T11:58:24.009Z,36.83
2022-07-25T12:03:45.453Z,36.75
2022-07-25T12:09:21.374Z,36.50
2022-07-25T12:14:43.717Z,36.42
2022-07-25T12:20:09.202Z,36.07
2022-07-25T12:25:33.267Z,36.33
2022-07-25T12:30:56.754Z,35.62
2022-07-25T12:36:17.596Z,35.83
2022-07-25T12:41:40.099Z,35.79
2022-07-25T12:47:01.843Z,35.49
2022-07-25T12:52:22.675Z,35.71
2022-07-25T12:57:43.888Z,35.44
2022-07-25T13:03:04.926Z,35.52
2022-07-25T13:08:26.127Z,35.30
2022-07-25T13:13:46.625Z,35.38
2022-07-25T13:19:08.837Z,35.17
2022-07-25T13:24:29.923Z,35.20
2022-07-25T13:29:54.759Z,34.90
2022-07-25T13:35:20.232Z,35.00
2022-07-25T13:40:44.363Z,34.99
2022-07-25T13:46:05.458Z,34.83
2022-07-25T13:51:26.393Z,35.42
2022-07-25T13:56:47.632Z,34.96
2022-07-25T14:02:08.269Z,34.98
2022-07-25T14:07:28.672Z,34.74
2022-07-25T14:12:50.374Z,34.81
2022-07-25T14:18:11.328Z,34.62
2022-07-25T14:23:32.147Z,34.85
2022-07-25T14:28:53.139Z,34.44
2022-07-25T14:34:15.734Z,34.29
2022-07-25T14:39:36.492Z,34.34
2022-07-25T14:44:57.097Z,34.37
2022-07-25T14:50:18.011Z,34.81
2022-07-25T14:55:38.488Z,34.72
2022-07-25T15:00:59.338Z,34.58
2022-07-25T15:06:19.885Z,35.00
2022-07-25T15:11:40.725Z,34.94
2022-07-25T15:17:01.656Z,34.33
2022-07-25T15:22:22.431Z,34.55
2022-07-25T15:27:43.131Z,33.80
2022-07-25T15:33:03.761Z,34.17
2022-07-25T15:38:24.665Z,34.24
2022-07-25T15:43:45.234Z,34.16
2022-07-25T15:49:06.349Z,34.40
2022-07-25T15:54:29.558Z,34.84
2022-07-25T15:59:50.473Z,34.79
2022-07-25T16:05:11.054Z,34.60
2022-07-25T16:10:32.997Z,34.50
2022-07-25T16:15:54.133Z,35.24
2022-07-25T16:21:15.010Z,35.45
2022-07-25T16:26:35.749Z,35.30
2022-07-25T16:31:57.077Z,36.45
2022-07-25T16:37:17.902Z,35.81
2022-07-25T16:42:38.809Z,35.29
2022-07-25T16:47:59.783Z,36.06
2022-07-25T16:53:20.653Z,37.22
2022-07-25T16:58:41.685Z,37.27
2022-07-25T17:04:02.598Z,37.59
2022-07-25T17:09:25.251Z,37.90
2022-07-25T17:14:46.412Z,38.52
2022-07-25T17:20:08.274Z,38.62
2022-07-25T17:25:29.382Z,38.91
2022-07-25T17:30:50.417Z,39.37
2022-07-25T17:36:11.151Z,39.81
2022-07-25T17:41:32.007Z,40.04
2022-07-25T17:46:55.961Z,40.00
2022-07-25T17:52:17.854Z,40.31
2022-07-25T17:57:42.486Z,40.64
2022-07-25T18:03:03.443Z,40.57
2022-07-25T18:08:24.297Z,41.26
2022-07-25T18:13:44.983Z,41.20
2022-07-25T18:19:05.667Z,42.08
2022-07-25T18:24:29.370Z,42.22
2022-07-25T18:29:50.515Z,42.12
2022-07-25T18:35:11.396Z,42.36
2022-07-25T18:40:32.366Z,42.53
2022-07-25T18:45:53.260Z,42.97
2022-07-25T18:51:14.201Z,42.81
2022-07-25T18:56:35.062Z,43.41
2022-07-25T19:01:55.764Z,43.26
2022-07-25T19:07:16.679Z,43.86
2022-07-25T19:12:37.823Z,43.69
2022-07-25T19:17:58.966Z,43.52
2022-07-25T19:23:19.494Z,43.95
2022-07-25T19:28:40.107Z,44.15
2022-07-25T19:34:00.765Z,44.32
2022-07-25T19:39:22.377Z,44.61
2022-07-25T19:44:43.142Z,44.90
2022-07-25T19:50:04.458Z,44.69
2022-07-25T19:55:25.072Z,44.95
2022-07-25T20:00:45.754Z,44.76
2022-07-25T20:06:08.460Z,44.93
2022-07-25T20:11:29.717Z,44.96
2022-07-25T20:16:51.092Z,45.04
2022-07-25T20:22:11.668Z,44.76
2022-07-25T20:27:32.428Z,44.56
2022-07-25T20:32:53.908Z,44.87
2022-07-25T20:38:15.228Z,45.46
2022-07-25T20:43:37.990Z,45.66
2022-07-25T20:48:59.009Z,45.59
2022-07-25T20:54:19.651Z,45.74
2022-07-25T20:59:40.414Z,45.84
2022-07-25T21:05:01.011Z,46.21
2022-07-25T21:10:21.815Z,45.86
2022-07-25T21:15:42.785Z,46.37
2022-07-25T21:21:03.368Z,46.79
2022-07-25T21:26:23.992Z,46.44
2022-07-25T21:31:44.894Z,46.30
2022-07-25T21:37:05.791Z,46.27
2022-07-25T21:42:26.768Z,46.21
2022-07-25T21:47:47.443Z,46.42
2022-07-25T21:53:14.000Z,46.76
2022-07-25T21:58:34.853Z,46.58
2022-07-25T22:03:55.557Z,46.91
2022-07-25T22:09:16.154Z,46.91
2022-07-25T22:14:37.726Z,47.43
2022-07-25T22:19:58.472Z,47.73
2022-07-25T22:25:19.115Z,47.44
2022-07-25T22:30:39.770Z,47.65
2022-07-25T22:36:00.848Z,47.43
2022-07-25T22:41:21.542Z,47.37
2022-07-25T22:46:42.472Z,47.16
2022-07-25T22:52:03.656Z,47.25
2022-07-25T22:57:24.503Z,47.09
2022-07-25T23:02:45.201Z,47.04
2022-07-25T23:08:06.165Z,47.01
2022-07-25T23:13:26.995Z,47.13
2022-07-25T23:18:47.642Z,46.60
2022-07-25T23:24:08.459Z,46.65
2022-07-25T23:29:29.005Z,46.25
2022-07-25T23:34:49.702Z,45.92
2022-07-25T23:40:11.099Z,46.02
2022-07-25T23:45:31.960Z,45.76
2022-07-25T23:50:52.589Z,45.74
2022-07-25T23:56:17.276Z,45.23
